Time;durP1;ratioP1;P1;durP2;ratioP2;P2;SDS_P1;SDS_P2;PMS_P1;PMS_P2;Temp;Humidity;BMP_temperature;BMP_pressure;BME280_temperature;BME280_humidity;BME280_pressure;Samples;Min_cycle;Max_cycle;Signal;HPM_P1;HPM_P2
2022/01/31 00:02:18;;;;;;;1.20;1.02;;;;;;;0.94;79.91;96940.42;1687075;83;21167;-39
2022/01/31 00:04:44;;;;;;;2.47;0.93;;;;;;;0.92;80.07;96940.58;1687916;83;21056;-39
2022/01/31 00:07:11;;;;;;;1.35;1.00;;;;;;;0.92;80.14;96937.91;1686720;83;21975;-39
2022/01/31 00:09:42;;;;;;;2.02;1.07;;;;;;;0.91;80.18;96939.03;1690110;83;20953;-39
2022/01/31 00:12:17;;;;;;;1.25;0.93;;;;;;;0.91;80.26;96938.47;1708589;82;20964;-39
2022/01/31 00:14:44;;;;;;;1.22;0.90;;;;;;;0.90;80.23;96924.92;1705391;83;21072;-39
2022/01/31 00:17:12;;;;;;;1.67;0.95;;;;;;;0.90;80.21;96930.26;1721948;82;21563;-38
2022/01/31 00:19:40;;;;;;;1.07;0.90;;;;;;;0.90;80.21;96934.27;1701167;82;21129;-39
2022/01/31 00:22:11;;;;;;;1.55;1.17;;;;;;;0.91;80.23;96938.47;1710153;83;21358;-39
2022/01/31 00:24:38;;;;;;;0.90;0.80;;;;;;;0.91;80.22;96935.81;1714298;83;21049;-39
2022/01/31 00:27:07;;;;;;;1.35;0.80;;;;;;;0.90;80.10;96932.16;1695707;83;21086;-39
2022/01/31 00:29:34;;;;;;;1.10;0.90;;;;;;;0.92;80.04;96932.58;1686705;83;21076;-39
2022/01/31 00:32:01;;;;;;;1.42;0.75;;;;;;;0.91;80.04;96933.70;1745881;82;21143;-39
2022/01/31 00:34:28;;;;;;;1.35;1.00;;;;;;;0.92;80.21;96936.58;1721253;83;21040;-39
2022/01/31 00:36:54;;;;;;;1.80;1.00;;;;;;;0.91;80.29;96931.03;1721417;82;21021;-39
2022/01/31 00:39:22;;;;;;;1.00;0.90;;;;;;;0.90;80.58;96928.92;1730675;82;20981;-39
2022/01/31 00:41:48;;;;;;;1.57;0.90;;;;;;;0.89;80.64;96928.71;1686807;83;21076;-39
2022/01/31 00:44:18;;;;;;;0.85;0.70;;;;;;;0.88;80.78;96939.17;1723029;82;21131;-38
2022/01/31 00:46:56;;;;;;;2.30;0.60;;;;;;;0.85;80.85;96933.98;1743582;81;21602;-38
2022/01/31 00:51:59;;;;;;;1.07;0.62;;;;;;;0.82;80.76;96927.27;1745982;82;21010;-39
2022/01/31 00:54:25;;;;;;;3.50;0.70;;;;;;;0.81;80.71;96927.83;1735849;82;21000;-39
2022/01/31 00:56:52;;;;;;;0.85;0.50;;;;;;;0.83;80.73;96931.45;1746917;81;21146;-39
2022/01/31 00:59:19;;;;;;;0.70;0.57;;;;;;;0.82;80.42;96923.27;1729328;81;21559;-39
2022/01/31 01:01:45;;;;;;;1.40;0.60;;;;;;;0.81;80.31;96929.72;1732314;81;21536;-39
2022/01/31 01:04:12;;;;;;;1.55;0.80;;;;;;;0.79;80.18;96931.95;1686786;83;21087;-39
2022/01/31 01:06:40;;;;;;;1.62;0.85;;;;;;;0.78;80.35;96926.41;1698923;83;20989;-39
2022/01/31 01:09:07;;;;;;;0.65;0.65;;;;;;;0.79;80.39;96935.96;1715240;83;21160;-38
2022/01/31 01:11:35;;;;;;;1.17;0.62;;;;;;;0.77;80.38;96931.56;1697196;83;20976;-39
2022/01/31 01:14:02;;;;;;;0.80;0.70;;;;;;;0.76;80.31;96932.68;1687462;83;21017;-38
2022/01/31 01:16:31;;;;;;;0.82;0.50;;;;;;;0.73;80.32;96938.14;1731828;82;21049;-38
2022/01/31 01:18:58;;;;;;;1.85;0.50;;;;;;;0.74;80.12;96935.69;1686892;83;21538;-38
2022/01/31 01:21:25;;;;;;;0.90;0.53;;;;;;;0.73;79.87;96935.47;1708554;83;21820;-38
2022/01/31 01:23:52;;;;;;;1.00;0.60;;;;;;;0.74;79.74;96942.92;1690203;82;21009;-39
2022/01/31 01:26:19;;;;;;;1.12;0.57;;;;;;;0.74;79.60;96942.92;1711759;82;21046;-39
2022/01/31 01:28:46;;;;;;;0.85;0.57;;;;;;;0.72;79.60;96938.52;1716910;82;21019;-39
2022/01/31 01:31:14;;;;;;;1.57;0.82;;;;;;;0.74;79.73;96949.58;1706506;83;21064;-38
2022/01/31 01:33:42;;;;;;;0.90;0.70;;;;;;;0.72;79.99;96943.84;1686570;83;21144;-39
2022/01/31 01:36:10;;;;;;;1.10;0.70;;;;;;;0.72;80.12;96945.19;1721616;82;20998;-39
2022/01/31 01:38:37;;;;;;;0.82;0.57;;;;;;;0.70;80.13;96945.52;1695704;84;20934;-39
2022/01/31 01:41:05;;;;;;;0.75;0.62;;;;;;;0.71;80.20;96947.63;1741999;81;21006;-39
2022/01/31 01:43:32;;;;;;;0.75;0.60;;;;;;;0.70;80.00;96942.09;1708533;83;21091;-39
2022/01/31 01:45:59;;;;;;;0.72;0.60;;;;;;;0.70;79.89;96939.42;1693969;83;21842;-38
2022/01/31 01:48:28;;;;;;;2.02;0.60;;;;;;;0.71;79.87;96944.97;1750842;81;21536;-39
2022/01/31 01:50:57;;;;;;;0.70;0.60;;;;;;;0.71;79.45;96948.41;1737317;82;21072;-39
2022/01/31 01:53:24;;;;;;;1.70;0.70;;;;;;;0.70;78.98;96939.42;1731458;82;21071;-39
2022/01/31 01:55:53;;;;;;;0.88;0.72;;;;;;;0.74;78.66;96943.69;1743605;82;21484;-39
2022/01/31 01:58:23;;;;;;;1.17;0.60;;;;;;;0.75;78.25;96937.80;1715290;83;21960;-39
2022/01/31 02:01:02;;;;;;;1.42;0.70;;;;;;;0.76;77.76;96948.12;1695800;83;21019;-39
2022/01/31 02:03:33;;;;;;;1.57;0.62;;;;;;;0.77;77.47;96940.89;1745046;81;20993;-39
2022/01/31 02:06:00;;;;;;;0.45;0.40;;;;;;;0.72;76.51;96933.19;1730936;81;21073;-39
2022/01/31 02:08:28;;;;;;;1.27;0.68;;;;;;;0.73;76.42;96940.03;1713578;82;21100;-39
2022/01/31 02:10:55;;;;;;;1.98;0.80;;;;;;;0.73;76.00;96938.70;1714057;82;21528;-39
2022/01/31 02:13:30;;;;;;;0.72;0.72;;;;;;;0.71;75.74;96935.64;1723909;82;21030;-39
2022/01/31 02:16:07;;;;;;;1.65;0.78;;;;;;;0.70;75.60;96937.53;1730411;81;21002;-38
2022/01/31 02:18:48;;;;;;;1.47;0.50;;;;;;;0.70;75.26;96939.42;1719048;81;21069;-39
2022/01/31 02:21:09;;;;;;;1.42;0.60;;;;;;;0.67;74.89;96934.80;1692069;84;21599;-39
2022/01/31 02:23:36;;;;;;;1.40;0.78;;;;;;;0.67;74.94;96940.14;1681530;84;21897;-39
2022/01/31 02:26:13;;;;;;;1.85;0.68;;;;;;;0.66;74.76;96935.92;1681089;83;21119;-38
2022/01/31 02:28:54;;;;;;;0.72;0.60;;;;;;;0.66;74.64;96941.25;1731376;81;21021;-38
2022/01/31 02:31:21;;;;;;;0.53;0.53;;;;;;;0.61;74.40;96944.20;1713858;82;21089;-39
2022/01/31 02:33:48;;;;;;;1.35;0.70;;;;;;;0.63;74.63;96939.30;1697091;83;21050;-38
2022/01/31 02:36:14;;;;;;;0.98;0.60;;;;;;;0.63;74.58;96947.30;1733897;82;21107;-39
2022/01/31 02:38:41;;;;;;;0.93;0.65;;;;;;;0.62;74.50;96933.76;1734581;82;20985;-38
2022/01/31 02:41:08;;;;;;;0.55;0.50;;;;;;;0.62;74.47;96937.75;1742168;81;20974;-38
2022/01/31 02:43:34;;;;;;;0.70;0.53;;;;;;;0.61;74.39;96930.31;1713674;83;21027;-38
2022/01/31 02:46:02;;;;;;;0.70;0.55;;;;;;;0.19;74.57;96871.67;1713702;82;21005;-39
2022/01/31 02:48:32;;;;;;;1.00;0.50;;;;;;;0.58;74.87;96939.00;1720917;82;21119;-39
2022/01/31 02:50:59;;;;;;;0.88;0.70;;;;;;;0.55;75.54;96956.27;1725569;82;21033;-38
2022/01/31 02:53:28;;;;;;;1.10;0.60;;;;;;;0.54;76.47;96954.72;1739999;82;20938;-38
2022/01/31 02:55:57;;;;;;;0.90;0.50;;;;;;;0.49;77.07;96950.45;1741325;82;21068;-39
2022/01/31 02:58:25;;;;;;;2.47;0.70;;;;;;;0.47;77.69;96952.72;1728141;81;21032;-39
2022/01/31 03:00:53;;;;;;;0.90;0.47;;;;;;;0.42;78.09;96944.44;1713743;83;21857;-39
2022/01/31 03:03:22;;;;;;;0.40;0.40;;;;;;;0.37;78.25;96940.72;1716805;82;20937;-39
2022/01/31 03:05:49;;;;;;;0.70;0.50;;;;;;;0.34;78.35;96957.40;1727007;81;21028;-39
2022/01/31 03:08:16;;;;;;;0.95;0.60;;;;;;;0.32;78.14;96967.65;1741772;80;21010;-39
2022/01/31 03:10:44;;;;;;;0.30;0.30;;;;;;;0.32;78.49;96957.55;1756456;81;21084;-38
2022/01/31 03:13:11;;;;;;;0.55;0.40;;;;;;;0.31;78.43;96960.77;1733357;81;21093;-38
2022/01/31 03:15:41;;;;;;;1.35;0.62;;;;;;;0.31;78.30;96955.44;1720061;83;21559;-38
2022/01/31 03:18:13;;;;;;;0.98;0.57;;;;;;;0.31;78.38;96959.44;1717939;83;20968;-39
2022/01/31 03:20:40;;;;;;;0.65;0.40;;;;;;;0.30;78.34;96957.89;1720519;83;20993;-39
2022/01/31 03:23:07;;;;;;;0.98;0.70;;;;;;;0.31;78.40;96955.44;1720608;83;21012;-39
2022/01/31 03:25:34;;;;;;;1.57;0.70;;;;;;;0.30;78.55;96960.55;1720529;83;21844;-39
2022/01/31 03:28:01;;;;;;;0.50;0.40;;;;;;;0.29;78.61;96967.59;1720310;83;20988;-38
2022/01/31 03:30:29;;;;;;;0.95;0.42;;;;;;;0.29;78.43;96959.59;1693654;84;21100;-39
2022/01/31 03:32:56;;;;;;;0.95;0.78;;;;;;;0.31;78.37;96964.77;1678574;85;21121;-39
2022/01/31 03:35:23;;;;;;;0.93;0.55;;;;;;;0.31;77.91;96971.44;1716620;82;21068;-38
2022/01/31 03:37:50;;;;;;;0.78;0.50;;;;;;;0.33;77.73;96973.76;1716781;83;21152;-39
2022/01/31 03:40:19;;;;;;;0.82;0.50;;;;;;;0.32;77.60;96970.31;1705475;83;20976;-39
2022/01/31 03:42:46;;;;;;;1.60;0.82;;;;;;;0.32;77.43;96966.32;1691632;84;21038;-38
2022/01/31 03:45:13;;;;;;;0.80;0.57;;;;;;;0.34;77.48;96968.06;1702816;83;21072;-39
2022/01/31 03:47:44;;;;;;;0.60;0.50;;;;;;;0.36;77.22;96965.83;1707245;83;21131;-38
2022/01/31 03:50:17;;;;;;;0.45;0.40;;;;;;;0.33;76.87;96965.20;1692062;83;22126;-39
2022/01/31 03:52:45;;;;;;;1.67;0.80;;;;;;;0.35;76.87;96977.60;1691656;84;21019;-38
2022/01/31 03:55:13;;;;;;;0.95;0.70;;;;;;;0.34;76.89;96974.72;1695688;83;21040;-38
2022/01/31 03:57:41;;;;;;;1.65;0.60;;;;;;;0.32;76.72;96978.31;1699411;83;21577;-39
2022/01/31 04:00:12;;;;;;;1.12;0.65;;;;;;;0.30;76.70;96977.88;1691628;83;21094;-39
2022/01/31 04:02:41;;;;;;;1.57;0.70;;;;;;;0.31;76.70;96975.43;1703609;83;21907;-39
2022/01/31 04:05:08;;;;;;;1.20;0.78;;;;;;;0.32;76.48;96980.98;1712603;83;21622;-38
2022/01/31 04:07:35;;;;;;;1.32;0.55;;;;;;;0.33;76.48;96976.42;1686402;85;21076;-38
2022/01/31 04:10:03;;;;;;;1.45;0.82;;;;;;;0.29;76.27;96971.59;1686388;83;21056;-38
2022/01/31 04:12:30;;;;;;;1.37;0.60;;;;;;;0.29;76.25;96973.66;1716799;83;21057;-39
2022/01/31 04:14:56;;;;;;;1.25;0.60;;;;;;;0.25;76.25;96964.83;1691799;83;22169;-39
2022/01/31 04:19:05;;;;;;;1.00;0.70;;;;;;;0.26;76.34;96973.04;1796647;79;22652;-38
2022/01/31 04:21:31;;;;;;;0.95;0.57;;;;;;;0.17;76.66;96979.14;1740240;81;20980;-38
2022/01/31 04:23:58;;;;;;;0.80;0.55;;;;;;;0.19;76.79;96982.23;1726889;83;21847;-38
2022/01/31 04:26:32;;;;;;;0.90;0.60;;;;;;;0.18;76.60;96978.02;1694610;83;21019;-38
2022/01/31 04:29:02;;;;;;;0.70;0.50;;;;;;;0.18;76.62;96982.58;1692165;82;21513;-38
2022/01/31 04:33:49;;;;;;;1.35;0.68;;;;;;;0.15;76.87;96977.38;1716766;83;21789;-38
2022/01/31 04:36:15;;;;;;;2.55;0.68;;;;;;;0.14;76.79;96986.51;1713195;83;21130;-38
2022/01/31 04:38:46;;;;;;;1.42;0.60;;;;;;;0.12;76.91;96986.07;1723328;83;20976;-37
2022/01/31 04:41:13;;;;;;;2.02;0.65;;;;;;;0.11;76.81;96988.52;1719956;83;21058;-38
2022/01/31 04:43:40;;;;;;;3.42;0.80;;;;;;;0.09;76.80;96990.78;1701585;83;21048;-38
2022/01/31 04:46:08;;;;;;;1.90;0.68;;;;;;;0.08;76.63;96995.88;1696198;83;21032;-38
2022/01/31 04:48:35;;;;;;;0.50;0.40;;;;;;;0.09;76.49;97005.42;1694494;84;21155;-37
2022/01/31 04:51:01;;;;;;;1.20;0.68;;;;;;;0.09;76.26;97012.09;1694714;83;21547;-38
2022/01/31 04:53:28;;;;;;;1.42;0.70;;;;;;;0.11;76.27;97013.83;1711960;82;21530;-38
2022/01/31 04:55:55;;;;;;;0.88;0.65;;;;;;;0.11;75.91;97020.48;1698516;83;21041;-38
2022/01/31 04:58:22;;;;;;;1.60;0.60;;;;;;;0.13;76.11;97017.48;1695273;83;21004;-38
2022/01/31 05:00:49;;;;;;;1.10;0.75;;;;;;;0.13;76.00;97008.94;1694788;83;21143;-38
2022/01/31 05:03:19;;;;;;;1.42;0.70;;;;;;;0.12;75.98;97022.03;1695221;83;21075;-38
2022/01/31 05:05:45;;;;;;;1.45;0.75;;;;;;;0.12;76.01;97023.37;1715740;83;21522;-38
2022/01/31 05:08:12;;;;;;;1.10;0.68;;;;;;;0.11;76.21;97023.15;1722691;83;20948;-38
2022/01/31 05:10:45;;;;;;;0.88;0.60;;;;;;;0.08;76.45;97025.19;1698239;83;21012;-38
2022/01/31 05:13:13;;;;;;;1.15;0.62;;;;;;;0.02;76.76;97038.55;1694657;84;21219;-38
2022/01/31 05:15:40;;;;;;;0.85;0.60;;;;;;;0.00;76.88;97044.80;1699184;83;21567;-38
2022/01/31 05:18:06;;;;;;;1.32;0.60;;;;;;;-0.05;77.17;97041.81;1708808;82;21016;-39
2022/01/31 05:20:33;;;;;;;1.87;0.60;;;;;;;-0.07;77.18;97040.08;1691574;83;20984;-39
2022/01/31 05:23:00;;;;;;;2.02;0.70;;;;;;;-0.10;77.25;97037.34;1686889;85;21783;-39
2022/01/31 05:25:27;;;;;;;1.50;0.65;;;;;;;-0.07;77.41;97039.30;1692131;83;21192;-39
2022/01/31 05:27:53;;;;;;;1.37;0.80;;;;;;;-0.08;77.21;97041.19;1687971;83;20945;-38
2022/01/31 05:30:22;;;;;;;2.02;0.70;;;;;;;-0.10;77.21;97046.66;1722003;82;21025;-38
2022/01/31 05:32:48;;;;;;;0.85;0.70;;;;;;;-0.09;77.06;97042.86;1721450;82;20957;-38
2022/01/31 05:35:15;;;;;;;0.50;0.50;;;;;;;-0.10;77.08;97051.98;1690516;83;21519;-39
2022/01/31 05:37:43;;;;;;;2.08;0.80;;;;;;;-0.46;76.93;96993.14;1691186;83;21212;-39
2022/01/31 05:40:11;;;;;;;0.40;0.40;;;;;;;-0.06;76.59;97058.94;1738498;80;21468;-38
2022/01/31 05:42:38;;;;;;;0.90;0.90;;;;;;;-0.03;76.41;97060.13;1690232;83;21094;-38
2022/01/31 05:45:07;;;;;;;0.95;0.60;;;;;;;-0.04;76.28;97066.56;1738413;82;21539;-38
2022/01/31 05:47:35;;;;;;;1.22;0.80;;;;;;;-0.05;76.14;97070.37;1739034;82;21025;-39
2022/01/31 05:50:03;;;;;;;0.65;0.60;;;;;;;-0.05;76.23;97079.69;1687178;83;21199;-38
2022/01/31 05:52:31;;;;;;;0.80;0.53;;;;;;;-0.05;76.25;97075.70;1695210;82;21043;-39
2022/01/31 05:55:00;;;;;;;1.32;0.62;;;;;;;-0.03;76.42;97077.44;1714569;83;21309;-38
2022/01/31 05:57:26;;;;;;;0.75;0.57;;;;;;;-0.05;76.45;97079.11;1749214;82;21692;-39
2022/01/31 05:59:53;;;;;;;0.98;0.65;;;;;;;-0.07;76.68;97082.69;1714684;83;20981;-38
2022/01/31 06:02:19;;;;;;;1.05;0.60;;;;;;;-0.08;76.48;97089.69;1743728;81;21128;-39
2022/01/31 06:04:46;;;;;;;1.90;0.57;;;;;;;-0.10;76.42;97082.61;1717685;82;20936;-39
2022/01/31 06:07:13;;;;;;;0.70;0.60;;;;;;;-0.11;76.33;97098.38;1713915;82;21523;-39
2022/01/31 06:09:40;;;;;;;0.98;0.70;;;;;;;-0.13;76.26;97097.37;1661526;84;21508;-39
2022/01/31 06:12:11;;;;;;;0.40;0.40;;;;;;;-0.11;76.29;97096.48;1673113;83;21057;-39
2022/01/31 06:14:39;;;;;;;1.27;0.68;;;;;;;-0.13;75.54;97108.58;1720921;82;21805;-39
2022/01/31 06:17:05;;;;;;;1.37;0.90;;;;;;;-0.11;75.24;97100.48;1774298;80;21046;-39
2022/01/31 06:19:32;;;;;;;1.07;0.70;;;;;;;-0.11;74.55;97093.82;1756379;80;20973;-39
2022/01/31 06:21:59;;;;;;;1.32;1.05;;;;;;;-0.10;74.54;97100.67;1754974;81;21076;-38
2022/01/31 06:24:25;;;;;;;1.75;0.70;;;;;;;-0.07;74.76;97101.89;1755341;81;21002;-38
2022/01/31 06:26:53;;;;;;;0.70;0.70;;;;;;;-0.03;74.39;97105.41;1720517;83;21837;-39
2022/01/31 06:29:21;;;;;;;1.47;0.80;;;;;;;-0.03;73.47;97109.40;1714525;83;21012;-39
2022/01/31 06:31:50;;;;;;;1.57;0.88;;;;;;;-0.03;73.14;97104.07;1686413;84;21735;-39
2022/01/31 06:34:18;;;;;;;1.52;0.65;;;;;;;-0.05;73.04;97082.36;1702379;84;20986;-38
2022/01/31 06:36:45;;;;;;;2.20;0.80;;;;;;;-0.02;73.15;97100.30;1692387;84;21065;-39
2022/01/31 06:39:12;;;;;;;1.27;0.60;;;;;;;-0.01;73.26;97107.95;1720715;83;21838;-38
2022/01/31 06:41:39;;;;;;;1.02;0.75;;;;;;;0.01;73.10;97095.59;1720311;83;21060;-38
2022/01/31 06:44:06;;;;;;;0.82;0.70;;;;;;;0.00;73.12;97089.50;1719565;83;20988;-39
2022/01/31 06:46:33;;;;;;;1.00;0.90;;;;;;;0.02;73.35;97107.03;1712454;82;20929;-38
2022/01/31 06:48:59;;;;;;;1.87;0.90;;;;;;;0.01;73.23;97107.59;1712954;83;21127;-38
2022/01/31 06:51:26;;;;;;;1.32;0.60;;;;;;;0.02;73.54;97117.12;1711497;83;21080;-38
2022/01/31 06:53:55;;;;;;;0.85;0.72;;;;;;;0.01;73.75;97118.24;1686464;83;21631;-38
2022/01/31 06:56:29;;;;;;;1.45;0.68;;;;;;;0.02;74.11;97115.80;1721209;82;20981;-38
2022/01/31 06:58:50;;;;;;;2.55;0.90;;;;;;;0.03;74.38;97131.22;1719347;83;20987;-38
2022/01/31 07:01:17;;;;;;;2.20;0.80;;;;;;;0.04;74.51;97126.89;1720546;83;21016;-39
2022/01/31 07:03:44;;;;;;;2.30;0.80;;;;;;;0.04;74.89;97124.78;1712682;82;21195;-39
2022/01/31 07:06:11;;;;;;;1.27;0.80;;;;;;;0.05;75.13;97124.42;1711719;82;20916;-39
2022/01/31 07:08:38;;;;;;;2.33;0.80;;;;;;;0.09;75.36;97115.98;1725133;82;21879;-39
2022/01/31 07:11:04;;;;;;;0.93;0.70;;;;;;;0.11;75.24;97119.61;1696957;84;21628;-39
2022/01/31 07:15:58;;;;;;;1.77;0.80;;;;;;;0.20;74.95;97122.86;1701961;84;21147;-39
2022/01/31 07:18:25;;;;;;;1.32;1.00;;;;;;;0.25;74.96;97136.70;1682311;84;20934;-39
2022/01/31 07:20:53;;;;;;;1.37;1.00;;;;;;;0.32;74.68;97128.88;1689211;84;21014;-39
2022/01/31 07:23:51;;;;;;;1.65;0.80;;;;;;;0.39;74.55;97132.24;1667489;85;20999;-39
2022/01/31 07:25:56;;;;;;;4.58;1.10;;;;;;;0.46;74.68;97140.41;1695992;83;21098;-39
2022/01/31 07:28:23;;;;;;;2.47;1.12;;;;;;;0.52;74.65;97150.25;1710643;82;21162;-39
2022/01/31 07:30:52;;;;;;;0.78;0.78;;;;;;;0.55;74.46;97151.66;1747131;82;21571;-38
2022/01/31 07:33:19;;;;;;;2.05;1.07;;;;;;;0.58;74.56;97152.87;1740640;82;21622;-39
2022/01/31 07:35:49;;;;;;;2.02;1.22;;;;;;;0.54;74.38;97150.10;1744767;80;22405;-39
2022/01/31 07:38:16;;;;;;;1.45;1.00;;;;;;;0.51;74.52;97147.36;1738307;80;20993;-39
2022/01/31 07:40:43;;;;;;;2.80;1.20;;;;;;;0.49;74.58;97142.93;1741102;82;21814;-39
2022/01/31 07:43:10;;;;;;;1.00;0.78;;;;;;;0.46;74.36;97150.30;1746446;82;20925;-39
2022/01/31 07:45:38;;;;;;;1.37;0.70;;;;;;;0.45;73.73;97154.85;1756797;81;20978;-39
2022/01/31 07:48:05;;;;;;;1.70;0.90;;;;;;;0.42;73.26;97156.33;1741548;82;21081;-39
2022/01/31 07:50:33;;;;;;;1.25;0.88;;;;;;;0.45;73.08;97166.84;1735559;82;21026;-39
2022/01/31 07:53:01;;;;;;;1.27;1.07;;;;;;;0.46;72.17;97160.41;1746606;80;21559;-39
2022/01/31 07:55:28;;;;;;;1.25;0.90;;;;;;;0.47;71.84;97166.52;1743874;80;20930;-39
2022/01/31 07:57:55;;;;;;;1.00;0.70;;;;;;;0.49;71.74;97170.92;1748351;80;21020;-39
2022/01/31 08:00:21;;;;;;;1.25;0.65;;;;;;;0.47;71.26;97163.84;1748292;82;21006;-38
2022/01/31 08:02:49;;;;;;;1.07;0.78;;;;;;;0.49;70.74;97160.26;1748689;81;21040;-38
2022/01/31 08:05:21;;;;;;;2.12;0.98;;;;;;;0.48;70.73;97166.73;1742758;82;21145;-39
2022/01/31 08:07:45;;;;;;;1.40;0.78;;;;;;;0.46;70.47;97183.06;1749734;80;21041;-38
2022/01/31 08:10:12;;;;;;;2.70;0.80;;;;;;;0.42;70.65;97187.54;1738312;80;20965;-38
2022/01/31 08:12:41;;;;;;;1.00;0.70;;;;;;;0.32;70.06;97170.19;1703523;83;21027;-39
2022/01/31 08:15:14;;;;;;;0.62;0.60;;;;;;;0.30;70.71;97185.73;1710244;83;21081;-38
2022/01/31 08:17:38;;;;;;;1.62;0.75;;;;;;;0.30;71.26;97199.61;1756097;81;21254;-38
2022/01/31 08:20:07;;;;;;;2.22;0.90;;;;;;;0.27;71.67;97196.31;1758779;81;21004;-39
2022/01/31 08:22:34;;;;;;;2.00;0.97;;;;;;;0.25;71.92;97193.98;1752460;81;21009;-39
2022/01/31 08:25:01;;;;;;;4.00;1.25;;;;;;;0.29;72.38;97200.17;1742582;81;20976;-39
2022/01/31 08:27:28;;;;;;;1.72;1.07;;;;;;;0.31;72.15;97213.16;1747718;80;20977;-39
2022/01/31 08:30:05;;;;;;;0.88;0.80;;;;;;;0.33;71.84;97210.94;1743927;81;21622;-38
2022/01/31 08:32:33;;;;;;;2.35;0.85;;;;;;;0.36;71.56;97216.34;1751176;80;20972;-38
2022/01/31 08:37:38;;;;;;;1.12;0.90;;;;;;;0.46;70.71;97227.59;1718077;83;21111;-39
2022/01/31 08:40:07;;;;;;;1.30;1.00;;;;;;;0.51;70.63;97240.67;1699110;83;21043;-38
2022/01/31 08:42:34;;;;;;;2.47;1.03;;;;;;;0.58;69.38;97234.19;1698929;84;21144;-39
2022/01/31 08:45:00;;;;;;;1.40;0.80;;;;;;;0.58;69.38;97234.19;1696335;84;21459;-38
2022/01/31 08:47:27;;;;;;;1.32;0.90;;;;;;;0.61;68.08;97229.48;1692102;84;21025;-38
2022/01/31 08:49:54;;;;;;;1.52;0.88;;;;;;;0.66;68.25;97238.55;1696560;83;21061;-39
2022/01/31 08:52:20;;;;;;;1.20;0.80;;;;;;;0.70;68.06;97240.73;1674756;84;21049;-38
2022/01/31 08:54:47;;;;;;;1.35;1.00;;;;;;;0.74;67.91;97244.25;1690557;84;21077;-39
2022/01/31 08:57:14;;;;;;;2.60;0.90;;;;;;;0.75;67.39;97239.91;1683240;84;21019;-38
2022/01/31 08:59:44;;;;;;;0.88;0.75;;;;;;;0.80;67.72;97245.55;1691691;84;21087;-38
2022/01/31 09:02:13;;;;;;;2.17;1.27;;;;;;;0.81;67.66;97252.43;1691710;84;21043;-39
2022/01/31 09:04:49;;;;;;;2.08;1.00;;;;;;;0.83;68.18;97254.17;1677498;84;21575;-39
2022/01/31 09:07:25;;;;;;;1.50;1.10;;;;;;;0.83;68.05;97247.51;1702146;84;21137;-39
2022/01/31 09:09:52;;;;;;;1.47;1.00;;;;;;;0.80;67.96;97248.21;1681748;84;21603;-40
2022/01/31 09:12:18;;;;;;;2.02;1.15;;;;;;;0.77;68.46;97251.58;1684726;84;21553;-39
2022/01/31 09:14:45;;;;;;;3.50;1.30;;;;;;;0.72;68.83;97255.84;1681082;84;21069;-40
2022/01/31 09:17:13;;;;;;;2.67;1.20;;;;;;;0.71;69.71;97267.63;1681161;84;21515;-39
2022/01/31 09:19:39;;;;;;;3.42;1.52;;;;;;;0.64;70.27;97266.11;1685020;84;21849;-40
2022/01/31 09:22:07;;;;;;;1.60;1.12;;;;;;;0.59;70.76;97268.48;1684768;84;21632;-40
2022/01/31 09:24:40;;;;;;;1.98;1.00;;;;;;;0.55;71.39;97274.29;1698297;84;20999;-40
2022/01/31 09:27:04;;;;;;;2.67;1.30;;;;;;;0.47;71.24;97275.25;1697233;82;21107;-40
2022/01/31 09:29:31;;;;;;;2.17;1.20;;;;;;;0.46;71.59;97276.91;1741445;80;21056;-40
2022/01/31 09:32:00;;;;;;;1.45;0.93;;;;;;;0.44;71.56;97278.58;1741560;82;21137;-40
2022/01/31 09:34:26;;;;;;;2.35;1.00;;;;;;;0.43;71.56;97287.72;1708587;83;21997;-40
2022/01/31 09:36:53;;;;;;;2.45;1.02;;;;;;;0.40;71.26;97283.05;1708436;83;21039;-40
2022/01/31 09:39:20;;;;;;;2.25;1.10;;;;;;;0.39;71.52;97282.28;1708201;83;21045;-39
2022/01/31 09:41:53;;;;;;;2.22;1.12;;;;;;;0.38;71.23;97288.75;1712913;83;21055;-40
2022/01/31 09:44:22;;;;;;;2.10;1.25;;;;;;;0.41;70.98;97292.05;1689819;83;21120;-39
2022/01/31 09:49:11;;;;;;;1.98;1.02;;;;;;;0.37;70.46;97291.75;1700795;82;21015;-40
2022/01/31 09:51:38;;;;;;;2.15;1.15;;;;;;;0.36;70.45;97290.97;1737886;82;21485;-40
2022/01/31 09:54:04;;;;;;;1.75;1.10;;;;;;;0.38;70.17;97288.75;1732422;82;21063;-40
2022/01/31 09:56:35;;;;;;;1.45;1.12;;;;;;;0.38;69.56;97283.42;1751545;80;21113;-40
2022/01/31 09:59:03;;;;;;;1.32;1.00;;;;;;;0.41;69.74;97296.05;1727755;81;21508;-40
2022/01/31 10:01:36;;;;;;;1.70;1.00;;;;;;;0.43;69.49;97299.16;1721083;83;21043;-40
2022/01/31 10:04:14;;;;;;;2.08;1.00;;;;;;;0.45;69.64;97300.12;1720638;82;21012;-41
2022/01/31 10:06:43;;;;;;;1.42;1.00;;;;;;;0.46;69.58;97299.57;1751477;80;21055;-40
2022/01/31 10:09:20;;;;;;;1.85;1.10;;;;;;;0.50;69.57;97300.42;1751088;82;21113;-40
2022/01/31 10:12:09;;;;;;;1.50;1.25;;;;;;;0.52;69.06;97303.54;1742684;82;21076;-40
2022/01/31 10:17:40;;;;;;;2.22;1.25;;;;;;;0.55;68.82;97288.95;1705504;83;20949;-40
2022/01/31 10:20:25;;;;;;;1.70;1.05;;;;;;;0.58;68.53;97308.25;1707883;83;21029;-40
2022/01/31 10:22:52;;;;;;;1.17;1.07;;;;;;;0.63;68.74;97309.91;1744667;81;21136;-40
2022/01/31 10:25:21;;;;;;;2.10;1.15;;;;;;;0.68;68.25;97306.96;1690341;83;20938;-40
2022/01/31 10:27:52;;;;;;;1.60;1.30;;;;;;;0.75;68.13;97311.14;1674279;85;21291;-40
2022/01/31 10:30:25;;;;;;;1.98;1.22;;;;;;;0.79;67.87;97320.78;1722650;82;21045;-40
2022/01/31 10:32:53;;;;;;;1.37;1.20;;;;;;;0.81;67.81;97329.78;1701217;83;21025;-40
2022/01/31 10:35:31;;;;;;;2.40;1.15;;;;;;;0.81;67.60;97317.77;1714214;83;21109;-40
2022/01/31 10:38:08;;;;;;;1.45;1.05;;;;;;;0.82;67.44;97329.41;1751018;82;20946;-40
2022/01/31 10:46:09;;;;;;;2.27;1.30;;;;;;;0.77;67.17;97333.70;1742798;80;21033;-40
2022/01/31 10:54:26;;;;;;;2.12;1.45;;;;;;;0.81;67.52;97337.78;1728370;82;21012;-40
2022/01/31 10:56:49;;;;;;;2.30;1.17;;;;;;;0.86;67.60;97340.19;1703650;83;21049;-39
2022/01/31 10:59:25;;;;;;;3.00;1.37;;;;;;;0.92;67.04;97338.79;1719847;83;20960;-41
2022/01/31 11:01:56;;;;;;;1.77;1.22;;;;;;;0.92;65.38;97325.45;1730020;83;21108;-41
2022/01/31 11:04:23;;;;;;;3.00;1.30;;;;;;;0.96;66.24;97333.00;1712979;83;20976;-40
2022/01/31 11:06:54;;;;;;;1.50;1.20;;;;;;;0.99;65.56;97346.97;1722634;81;20905;-40
2022/01/31 11:09:20;;;;;;;2.15;0.98;;;;;;;1.01;65.12;97339.41;1685836;83;21558;-40
2022/01/31 11:11:50;;;;;;;2.22;1.10;;;;;;;1.02;64.25;97340.94;1729136;80;21013;-40
2022/01/31 11:14:17;;;;;;;1.85;1.00;;;;;;;1.05;64.48;97345.60;1736169;80;21131;-40
2022/01/31 11:16:45;;;;;;;1.95;1.42;;;;;;;1.06;64.27;97347.71;1748124;82;21029;-40
2022/01/31 11:19:15;;;;;;;1.70;1.07;;;;;;;1.12;64.56;97345.75;1746591;80;21312;-40
2022/01/31 11:21:45;;;;;;;2.35;1.00;;;;;;;1.25;64.36;97338.43;1759622;80;20965;-40
2022/01/31 11:24:25;;;;;;;1.27;0.90;;;;;;;1.40;63.53;97326.95;1747176;80;21048;-40
2022/01/31 11:27:05;;;;;;;1.20;0.98;;;;;;;1.49;62.93;97337.42;1745306;81;25221;-41
2022/01/31 11:29:34;;;;;;;2.70;1.05;;;;;;;1.54;62.22;97351.84;1751625;80;21685;-41
2022/01/31 11:32:02;;;;;;;1.87;1.30;;;;;;;1.53;61.71;97333.70;1752662;81;21521;-41
2022/01/31 11:34:28;;;;;;;1.20;0.88;;;;;;;1.52;61.97;97344.73;1753232;81;20968;-40
2022/01/31 11:36:55;;;;;;;1.32;1.00;;;;;;;1.44;60.87;97355.05;1755212;81;21421;-40
2022/01/31 11:39:22;;;;;;;1.00;0.90;;;;;;;1.38;60.99;97353.77;1727454;80;21790;-41
2022/01/31 11:41:57;;;;;;;3.12;0.90;;;;;;;1.35;61.49;97341.13;1746101;81;20957;-40
2022/01/31 11:44:35;;;;;;;1.25;0.95;;;;;;;1.29;60.93;97349.95;1754800;81;21515;-40
2022/01/31 11:47:05;;;;;;;1.25;0.93;;;;;;;1.24;61.24;97354.22;1767605;80;21592;-40
2022/01/31 11:49:55;;;;;;;1.32;1.00;;;;;;;1.23;61.34;97367.35;1745849;80;21044;-41
2022/01/31 11:52:23;;;;;;;2.73;1.13;;;;;;;1.23;61.80;97366.02;1691091;84;21166;-40
2022/01/31 11:54:57;;;;;;;2.10;1.12;;;;;;;1.19;62.19;97352.59;1707596;83;21503;-40
2022/01/31 11:57:32;;;;;;;1.65;1.20;;;;;;;1.27;62.31;97364.97;1712595;82;21052;-40
2022/01/31 12:00:12;;;;;;;1.07;0.98;;;;;;;1.44;62.23;97359.83;1714807;83;20976;-39
2022/01/31 12:02:45;;;;;;;1.92;1.12;;;;;;;1.61;61.11;97369.34;1712179;82;21032;-39
2022/01/31 12:05:19;;;;;;;2.90;1.10;;;;;;;1.68;60.78;97370.84;1713638;83;21182;-39
2022/01/31 12:07:50;;;;;;;2.22;0.98;;;;;;;1.68;60.25;97370.84;1697531;83;21020;-39
2022/01/31 12:10:26;;;;;;;3.25;1.10;;;;;;;1.65;60.00;97370.19;1711884;83;20966;-39
2022/01/31 12:13:00;;;;;;;1.20;0.82;;;;;;;1.61;60.21;97368.78;1720853;83;21522;-39
2022/01/31 12:15:58;;;;;;;1.60;0.98;;;;;;;1.52;60.63;97379.44;1719857;83;21072;-39
2022/01/31 12:24:07;;;;;;;1.60;1.02;;;;;;;1.23;63.16;97388.14;1695066;84;21056;-39